Relevés horaires Melle (Belgique)


Relevés horaires à Melle - Jeudi 05 Nov. 2015
Heure UTC1 Température [°C] Vent [km/h] Hum. [%] Pres.4 [hPa] Visi. [Km] Nébu. [octa] Préc.5 [mm] Cond.
2m. Res. Ros. Dir.2 Vit. Moy. Raf.3
23:00 14.7 14.1 13.3 SSO 11.1 11.1 16.7 91 1017.5(0.0/3h) -- -- -- --
22:00 14.6 14.6 13.1 S 5.6 7.4 11.1 91 1017.4(-0.4/3h) -- -- -- --
21:00 15.2 15.2 13.1 S 5.6 9.3 13.0 87 1017.9(0.4/3h) -- -- -- --
20:00 15.4 15.4 13.2 S 7.4 7.4 11.1 87 1017.5(0.8/3h) -- -- -- --
19:00 16.6 16.6 12.8 SSO 7.4 9.3 13.0 78 1017.8(1.0/3h) -- -- -- --
18:00 17.0 17.0 12.7 SSO 9.3 11.1 16.7 76 1017.5(0.8/3h) -- -- 0.4/12h
--
17:00 16.7 16.7 12.5 S 7.4 9.3 13.0 76 1016.7(-0.7/3h) -- -- -- --
16:00 16.7 16.7 12.5 S 5.6 5.6 11.1 76 1016.8(-0.9/3h) -- -- -- --
15:00 17.1 17.1 12.7 SSE 5.6 11.1 16.7 75 1016.7(-1.6/3h) -- -- -- --
14:00 17.3 17.3 13.1 S 5.6 9.3 14.8 76 1017.4(-1.5/3h) -- -- -- --
13:00 17.6 17.6 13.3 S 9.3 11.1 16.7 76 1017.7(-1.6/3h) -- -- -- --
12:00 16.6 16.6 12.8 S 9.3 9.3 16.7 78 1018.3(-1.3/3h) -- -- 0.4/6h
--
11:00 15.3 15.3 13.0 SSE 7.4 7.4 11.1 86 1018.9(-1.0/3h) -- -- -- --
10:00 13.9 13.9 12.7 SSE 5.6 7.4 13.0 92 1019.3(-0.3/3h) -- -- -- --
09:00 13.1 12.8 12.1 SSE 7.4 9.3 11.1 94 1019.6(0.3/3h) -- -- -- --
08:00 12.4 11.9 11.5 S 7.4 9.3 11.1 94 1019.9(0.6/3h) -- -- -- --
07:00 12.2 11.4 11.4 S 9.3 9.3 11.1 95 1019.6(0.4/3h) -- -- -- --
06:00 11.7 11.1 10.9 S 7.4 9.3 13.0 95 1019.3(0.0/3h) -- -- 0.1/12h
--
05:00 11.5 10.9 10.6 S 7.4 9.3 13.0 94 1019.3(0.0/3h) -- -- -- --
04:00 11.3 11.1 10.3 S 5.6 5.6 7.4 94 1019.2(-0.2/3h) -- -- -- --
03:00 11.1 11.1 9.9 S 3.7 5.6 9.3 92 1019.3(-0.1/3h) -- -- -- --
02:00 11.7 11.5 10.5 SSE 5.6 5.6 9.3 92 1019.3(0.0/3h) -- -- -- --
01:00 11.3 11.3 10.2 S 3.7 5.6 7.4 93 1019.4(0.5/3h) -- -- -- --
00:00 10.8 10.5 9.5 S 5.6 7.4 11.1 92 1019.4(0.5/3h) -- -- 0/0h
0/6h
--

1 Coordinated Universal Time. Actuellement il est 11:00 locale et 09:00 UTC.

2 Le vent souffle depuis la direction indiquée vers la direction oposée.

3 Les rafales max. sont disponible 40 min après l'heure du relevé.

4 Pour les stations d'altitude (plus de 600m) le géopotentiel du niveau le plus proche de la pression obligatoire est indiqué.

5 Les stations disposant d'un diffuseur peuvent indiquer "trace". Cela signifie que des précipitations ont touchés le sol mais que la quantité est inférieure à 0.1 mm.

Récapitulatif de la journée
Température [°C] Vent [km/h] Ensoleillement4 [h] Precipitations totale5 [mm] Pression [Hpa]
Min1 Max.2 Moy.3 Max. Min Max.
10.4 18.1 8.4 16.7 0 h 0 min 0 1016.7 1019.9

1 Température minimale relevée entre 18:00 UTC la veille et 18:00 UTC le jour donné.

2 Température maximale relevée entre 06:00 UTC le jour donné et 06:00 UTC le lendemain.

3 Vent moyen de la journée basé sur les relevés horaires.

4 Ensoleillement en heures relevé entre 06:00 UTC la veille et 06:00 UTC le jour donné.

5 Précipitations totales tombées entre 06:00 UTC la jour donné et 06:00 UTC le lendemain.

Graphiques horaires